Time;durP1;ratioP1;P1;durP2;ratioP2;P2;SDS_P1;SDS_P2;PMS_P1;PMS_P2;Temp;Humidity;BMP_temperature;BMP_pressure;BME280_temperature;BME280_humidity;BME280_pressure;Samples;Min_cycle;Max_cycle;Signal;HPM_P1;HPM_P2
2022/06/22 00:01:36;;;;;;;2.45;1.13;;;19.50;92.80;;;;;;4158940;28;20371;-67
2022/06/22 00:03:37;;;;;;;2.38;1.05;;;19.50;92.20;;;;;;4159667;28;20392;-67
2022/06/22 00:05:43;;;;;;;2.92;1.20;;;19.50;93.30;;;;;;4159285;28;20046;-67
2022/06/22 00:07:50;;;;;;;4.72;1.23;;;19.40;93.20;;;;;;4158642;28;20037;-67
2022/06/22 00:10:20;;;;;;;1.92;0.90;;;19.40;92.50;;;;;;4156950;28;20030;-67
2022/06/22 00:12:24;;;;;;;3.10;1.15;;;19.30;93.50;;;;;;4120805;28;20025;-67
2022/06/22 00:14:30;;;;;;;1.10;0.90;;;19.30;93.00;;;;;;4159673;28;20029;-67
2022/06/22 00:16:33;;;;;;;4.07;1.02;;;19.20;93.30;;;;;;4159053;28;20060;-67
2022/06/22 00:18:47;;;;;;;3.95;1.20;;;19.20;93.10;;;;;;4159934;28;20053;-67
2022/06/22 00:20:50;;;;;;;2.90;0.95;;;19.20;93.60;;;;;;4156039;28;20049;-67
2022/06/22 00:23:16;;;;;;;2.83;0.88;;;19.10;93.60;;;;;;4160300;28;20508;-67
2022/06/22 00:25:31;;;;;;;2.95;1.20;;;19.10;92.90;;;;;;4141739;28;20046;-67
2022/06/22 00:27:37;;;;;;;3.05;0.95;;;19.00;93.70;;;;;;4157962;28;20034;-67
2022/06/22 00:29:39;;;;;;;1.63;1.00;;;19.00;93.90;;;;;;4140659;28;20298;-67
2022/06/22 00:31:44;;;;;;;2.05;1.00;;;18.90;93.50;;;;;;4157098;28;20056;-67
2022/06/22 00:34:13;;;;;;;1.85;1.00;;;18.90;93.40;;;;;;4158905;28;20025;-67
2022/06/22 00:36:19;;;;;;;2.08;1.10;;;18.80;93.10;;;;;;4140442;28;20541;-67
2022/06/22 00:38:30;;;;;;;3.22;1.17;;;18.80;93.00;;;;;;4156939;28;20037;-67
2022/06/22 00:40:31;;;;;;;3.50;1.00;;;18.80;92.90;;;;;;4152079;28;20041;-67
2022/06/22 00:42:49;;;;;;;2.47;1.35;;;18.80;93.20;;;;;;4141329;28;20411;-67
2022/06/22 00:44:56;;;;;;;2.63;1.20;;;18.70;94.00;;;;;;4157948;28;20044;-67
2022/06/22 00:47:03;;;;;;;1.73;1.00;;;18.60;93.60;;;;;;4137453;28;20044;-67
2022/06/22 00:49:14;;;;;;;3.15;1.48;;;18.60;93.30;;;;;;4135844;28;20053;-67
2022/06/22 00:51:29;;;;;;;1.98;0.95;;;18.50;94.00;;;;;;4136712;28;20069;-67
2022/06/22 00:53:42;;;;;;;1.75;1.20;;;18.50;93.80;;;;;;4158989;28;20104;-67
2022/06/22 00:55:55;;;;;;;1.60;0.80;;;18.50;94.20;;;;;;4155104;28;20037;-67
2022/06/22 00:58:10;;;;;;;2.30;1.08;;;18.40;94.30;;;;;;4155683;28;20549;-67
2022/06/22 01:00:18;;;;;;;2.05;1.15;;;18.40;94.60;;;;;;4152752;28;20038;-67
2022/06/22 01:02:54;;;;;;;3.45;1.15;;;18.30;95.10;;;;;;4135700;28;20116;-67
2022/06/22 01:05:06;;;;;;;2.35;1.27;;;18.30;94.80;;;;;;4152352;28;20038;-67
2022/06/22 01:07:24;;;;;;;2.00;0.88;;;18.30;94.60;;;;;;4156005;28;20057;-67
2022/06/22 01:09:37;;;;;;;1.92;1.13;;;18.30;94.40;;;;;;4139230;28;20037;-67
2022/06/22 01:14:21;;;;;;;3.40;1.45;;;18.30;94.10;;;;;;4157004;28;20369;-67
2022/06/22 01:16:27;;;;;;;3.38;1.15;;;18.30;94.00;;;;;;4155299;28;20026;-67
2022/06/22 01:18:39;;;;;;;2.28;1.13;;;18.30;94.20;;;;;;4155539;28;20037;-67
2022/06/22 01:21:17;;;;;;;1.75;1.20;;;18.30;94.30;;;;;;4154319;28;20040;-67
2022/06/22 01:23:51;;;;;;;2.90;1.25;;;18.30;94.50;;;;;;4159057;28;20125;-67
2022/06/22 01:26:19;;;;;;;4.93;1.45;;;18.30;94.60;;;;;;4112899;28;20048;-67
2022/06/22 01:28:20;;;;;;;3.85;1.30;;;18.30;94.50;;;;;;4152935;28;20041;-67
2022/06/22 01:30:51;;;;;;;2.28;1.17;;;18.20;94.50;;;;;;4152450;28;20045;-67
2022/06/22 01:32:52;;;;;;;7.43;1.23;;;18.20;94.40;;;;;;4151174;28;20037;-67
2022/06/22 01:34:57;;;;;;;3.92;1.30;;;18.20;94.50;;;;;;4137284;28;20038;-67
2022/06/22 01:37:05;;;;;;;3.05;1.38;;;18.20;95.30;;;;;;4153351;28;20091;-67
2022/06/22 01:39:06;;;;;;;3.20;1.63;;;18.20;95.30;;;;;;4152875;28;20120;-67
2022/06/22 01:41:32;;;;;;;2.55;1.30;;;18.10;94.90;;;;;;4153207;28;20030;-67
2022/06/22 01:43:39;;;;;;;3.00;1.52;;;18.10;95.40;;;;;;4153622;28;20037;-67
2022/06/22 01:46:11;;;;;;;1.67;1.15;;;18.00;95.50;;;;;;4153014;28;20116;-67
2022/06/22 01:48:43;;;;;;;4.00;1.42;;;18.00;95.80;;;;;;4152956;28;20088;-67
2022/06/22 01:51:14;;;;;;;2.40;1.25;;;18.00;96.40;;;;;;4154073;28;20086;-67
2022/06/22 01:53:24;;;;;;;1.92;1.40;;;17.90;96.00;;;;;;4134836;28;20390;-67
2022/06/22 01:55:36;;;;;;;1.95;1.38;;;17.90;95.90;;;;;;4154022;28;20045;-67
2022/06/22 01:57:45;;;;;;;2.28;1.38;;;17.90;96.40;;;;;;4157615;28;20041;-67
2022/06/22 01:59:53;;;;;;;1.95;1.00;;;17.90;96.40;;;;;;4152757;28;20427;-67
2022/06/22 02:02:17;;;;;;;1.73;1.20;;;17.90;96.30;;;;;;4127727;28;20128;-67
2022/06/22 02:04:25;;;;;;;3.38;1.58;;;17.90;96.00;;;;;;4163890;28;20038;-69
2022/06/22 02:09:04;;;;;;;3.08;1.30;;;17.90;95.80;;;;;;4146896;28;20072;-69
2022/06/22 02:11:10;;;;;;;3.15;1.45;;;17.90;96.20;;;;;;4166513;28;20110;-69
2022/06/22 02:13:22;;;;;;;3.92;1.33;;;17.90;95.80;;;;;;4161543;28;20044;-69
2022/06/22 02:15:38;;;;;;;2.50;1.48;;;17.80;95.90;;;;;;4142772;28;20699;-69
2022/06/22 02:17:41;;;;;;;3.45;1.60;;;17.80;96.40;;;;;;4169336;28;20040;-69
2022/06/22 02:19:42;;;;;;;2.17;1.40;;;17.80;96.50;;;;;;4153668;28;20414;-69
2022/06/22 02:21:50;;;;;;;1.85;1.42;;;17.70;97.10;;;;;;4152412;28;20037;-69
2022/06/22 02:24:11;;;;;;;1.80;1.33;;;17.70;97.00;;;;;;4171434;28;20041;-69
2022/06/22 02:26:50;;;;;;;2.67;1.20;;;17.70;96.50;;;;;;4152131;28;20037;-69
2022/06/22 02:28:51;;;;;;;3.60;1.60;;;17.70;96.20;;;;;;4164960;28;20068;-69
2022/06/22 02:30:52;;;;;;;3.83;1.70;;;17.70;96.40;;;;;;4153150;28;20026;-69
2022/06/22 02:32:53;;;;;;;3.28;1.50;;;17.70;96.40;;;;;;4171275;28;20034;-66
2022/06/22 02:34:55;;;;;;;2.70;1.60;;;17.70;96.30;;;;;;4162975;28;20467;-65
2022/06/22 02:36:57;;;;;;;1.90;1.50;;;17.70;96.90;;;;;;4161622;28;20033;-64
2022/06/22 02:39:02;;;;;;;3.70;1.58;;;17.70;96.70;;;;;;4163147;28;20273;-65
2022/06/22 02:45:44;;;;;;;1.88;1.27;;;17.60;96.20;;;;;;4158481;28;20045;-65
2022/06/22 02:47:53;;;;;;;1.95;1.38;;;17.60;96.20;;;;;;4162572;28;20107;-65
2022/06/22 02:50:07;;;;;;;2.08;1.55;;;17.50;96.10;;;;;;4160125;28;20042;-64
2022/06/22 02:52:11;;;;;;;2.45;1.70;;;17.50;96.50;;;;;;4157500;28;20037;-64
2022/06/22 02:54:34;;;;;;;2.63;1.42;;;17.50;96.80;;;;;;4144298;28;20042;-64
2022/06/22 02:56:39;;;;;;;3.45;1.73;;;17.50;97.60;;;;;;4161694;28;20364;-65
2022/06/22 02:58:39;;;;;;;3.05;1.70;;;17.50;97.80;;;;;;4138620;28;20430;-65
2022/06/22 03:00:41;;;;;;;3.95;1.38;;;17.50;97.70;;;;;;4159053;28;20029;-65
2022/06/22 03:02:43;;;;;;;3.08;2.00;;;17.50;97.40;;;;;;4162679;28;20397;-64
2022/06/22 03:04:46;;;;;;;3.50;1.55;;;17.50;97.30;;;;;;4162499;28;20437;-64
2022/06/22 03:06:50;;;;;;;2.40;1.63;;;17.50;97.30;;;;;;4161333;28;20079;-64
2022/06/22 03:08:52;;;;;;;2.63;1.60;;;17.60;97.30;;;;;;4144835;28;20120;-64
2022/06/22 03:11:05;;;;;;;2.28;1.50;;;17.50;97.50;;;;;;4141471;28;20038;-64
2022/06/22 03:13:08;;;;;;;2.45;1.60;;;17.50;98.50;;;;;;4161361;28;20034;-64
2022/06/22 03:15:13;;;;;;;;;;;17.50;97.80;;;;;;4162386;28;20064;-64
2022/06/22 03:17:18;;;;;;;2.92;1.73;;;17.50;98.20;;;;;;4160148;28;19913;-64
2022/06/22 03:19:26;;;;;;;2.75;1.65;;;17.50;98.40;;;;;;4160308;28;20079;-64
2022/06/22 03:21:27;;;;;;;3.33;1.80;;;17.50;98.40;;;;;;4144034;28;20042;-64
2022/06/22 03:23:53;;;;;;;2.97;1.75;;;17.50;99.30;;;;;;4162589;28;20095;-64
2022/06/22 03:26:04;;;;;;;1.85;1.45;;;17.40;97.70;;;;;;4140541;28;20086;-64
2022/06/22 03:28:11;;;;;;;2.08;1.75;;;17.40;97.40;;;;;;4159512;28;20099;-64
2022/06/22 03:30:19;;;;;;;6.18;1.92;;;17.40;97.40;;;;;;4155341;28;20509;-64
2022/06/22 03:32:39;;;;;;;3.55;1.95;;;17.30;97.30;;;;;;4159057;28;20124;-64
2022/06/22 03:34:44;;;;;;;2.80;2.05;;;17.30;97.70;;;;;;4158206;28;20030;-64
2022/06/22 03:36:53;;;;;;;3.40;2.00;;;17.20;97.90;;;;;;4158690;28;20038;-64
2022/06/22 03:39:10;;;;;;;2.80;2.00;;;17.20;99.60;;;;;;4156889;28;20522;-64
2022/06/22 03:41:17;;;;;;;3.45;1.90;;;17.10;99.40;;;;;;4140037;28;20030;-64
2022/06/22 03:43:30;;;;;;;4.65;1.90;;;17.10;99.40;;;;;;4158822;28;20060;-64
2022/06/22 03:45:37;;;;;;;4.50;1.90;;;17.10;99.90;;;;;;4156269;28;20033;-64
2022/06/22 03:47:58;;;;;;;2.65;1.80;;;17.10;99.90;;;;;;4156787;28;20038;-64
2022/06/22 03:50:05;;;;;;;3.50;1.83;;;17.10;99.90;;;;;;4157237;28;20065;-64
2022/06/22 03:52:16;;;;;;;3.08;1.70;;;17.10;99.90;;;;;;4156910;28;20101;-64
2022/06/22 03:54:28;;;;;;;4.20;2.10;;;17.00;99.90;;;;;;4155442;28;20044;-65
2022/06/22 03:56:35;;;;;;;3.95;1.85;;;17.10;99.90;;;;;;4137771;28;20038;-65
2022/06/22 03:58:37;;;;;;;3.00;1.90;;;17.10;99.90;;;;;;4155157;28;20056;-65
2022/06/22 04:00:40;;;;;;;2.63;1.70;;;17.00;99.90;;;;;;4141094;28;20026;-65
2022/06/22 04:02:41;;;;;;;3.17;2.00;;;17.00;99.90;;;;;;4155527;28;20077;-65
2022/06/22 04:04:42;;;;;;;3.25;2.08;;;17.00;99.90;;;;;;4153385;28;20033;-65
2022/06/22 04:06:49;;;;;;;3.83;2.08;;;17.00;99.90;;;;;;4157479;28;20168;-65
2022/06/22 04:08:50;;;;;;;2.83;1.90;;;17.10;99.90;;;;;;4156314;28;20160;-65
2022/06/22 04:11:17;;;;;;;4.63;2.17;;;17.00;99.90;;;;;;4151881;28;20073;-65
2022/06/22 04:13:36;;;;;;;2.97;1.98;;;17.00;99.90;;;;;;4155792;28;20026;-65
2022/06/22 04:15:44;;;;;;;3.85;1.90;;;17.10;99.90;;;;;;4151593;28;20096;-65
2022/06/22 04:17:52;;;;;;;5.93;2.50;;;17.00;99.90;;;;;;4154397;28;20030;-65
2022/06/22 04:20:50;;;;;;;3.35;2.20;;;17.10;99.90;;;;;;4137972;28;20038;-65
2022/06/22 04:22:55;;;;;;;4.28;2.40;;;17.10;99.90;;;;;;4138692;28;20120;-65
2022/06/22 04:25:16;;;;;;;3.75;2.60;;;17.10;99.90;;;;;;4155674;28;20032;-65
2022/06/22 04:27:45;;;;;;;3.95;2.20;;;17.10;99.90;;;;;;4155928;28;20029;-65
2022/06/22 04:30:18;;;;;;;3.53;2.38;;;17.20;99.90;;;;;;4136254;28;20101;-65
2022/06/22 04:32:26;;;;;;;4.57;2.13;;;17.20;99.90;;;;;;4122742;28;20030;-65
2022/06/22 04:34:53;;;;;;;4.15;2.45;;;17.30;99.90;;;;;;4141599;28;20034;-65
2022/06/22 04:36:57;;;;;;;4.05;2.08;;;17.30;99.90;;;;;;4126529;28;20026;-65
2022/06/22 04:39:09;;;;;;;4.72;2.35;;;17.30;99.90;;;;;;4143126;28;20410;-65
2022/06/22 04:41:21;;;;;;;3.55;2.33;;;17.30;99.90;;;;;;4154590;28;20029;-65
2022/06/22 04:43:23;;;;;;;4.10;2.50;;;17.40;99.90;;;;;;4159519;28;20034;-65
2022/06/22 04:45:34;;;;;;;2.97;2.33;;;17.50;99.90;;;;;;4142691;28;20045;-65
2022/06/22 04:47:35;;;;;;;4.88;2.55;;;17.50;99.90;;;;;;4137764;28;20045;-65
2022/06/22 04:49:46;;;;;;;5.25;2.58;;;17.50;99.90;;;;;;4153936;28;20042;-65
2022/06/22 04:51:54;;;;;;;3.75;2.50;;;17.60;99.90;;;;;;4153762;28;20057;-65
2022/06/22 04:54:11;;;;;;;3.38;2.25;;;17.60;99.90;;;;;;4133455;28;20056;-65
2022/06/22 04:56:16;;;;;;;3.20;2.10;;;17.60;99.90;;;;;;4152043;28;20033;-65
2022/06/22 04:58:31;;;;;;;3.58;2.20;;;17.70;99.90;;;;;;4160920;28;20056;-65
2022/06/22 05:00:36;;;;;;;3.40;2.35;;;17.80;99.90;;;;;;4155170;28;20026;-65
2022/06/22 05:02:40;;;;;;;4.35;2.33;;;17.80;99.90;;;;;;4160700;28;20033;-65
2022/06/22 05:04:44;;;;;;;5.72;2.50;;;17.80;99.90;;;;;;4158782;28;20367;-64
2022/06/22 05:07:14;;;;;;;3.47;2.20;;;17.80;99.90;;;;;;4159097;28;20033;-63
2022/06/22 05:09:26;;;;;;;2.25;1.80;;;17.80;99.90;;;;;;4156002;28;20032;-63
2022/06/22 05:11:36;;;;;;;3.42;1.98;;;17.80;99.90;;;;;;4139227;28;20101;-63
2022/06/22 05:13:43;;;;;;;6.20;3.13;;;17.80;99.90;;;;;;4140468;28;20414;-63
2022/06/22 05:15:46;;;;;;;4.47;2.30;;;17.80;99.90;;;;;;4162798;28;20390;-63
2022/06/22 05:17:48;;;;;;;4.55;2.30;;;17.90;99.90;;;;;;4160810;28;20025;-63
2022/06/22 05:19:57;;;;;;;4.43;2.90;;;17.90;99.90;;;;;;4165412;28;20109;-63
2022/06/22 05:21:58;;;;;;;6.18;2.65;;;17.90;99.90;;;;;;4126029;28;20397;-63
2022/06/22 05:24:04;;;;;;;4.00;2.70;;;18.00;99.90;;;;;;4140782;28;20053;-63
2022/06/22 05:26:08;;;;;;;5.00;2.35;;;17.90;99.90;;;;;;4145925;28;20030;-63
2022/06/22 05:28:13;;;;;;;6.68;2.88;;;17.90;99.90;;;;;;4139051;28;20757;-63
2022/06/22 05:30:14;;;;;;;5.97;2.78;;;18.00;99.90;;;;;;4144032;28;20079;-63
2022/06/22 05:32:20;;;;;;;4.85;2.90;;;17.90;99.90;;;;;;4145944;28;20030;-63
2022/06/22 05:34:27;;;;;;;6.25;2.67;;;18.00;99.90;;;;;;4139953;28;20030;-64
2022/06/22 05:36:31;;;;;;;4.65;2.78;;;18.00;99.90;;;;;;4147061;28;20117;-64
2022/06/22 05:38:37;;;;;;;5.30;2.95;;;18.10;99.90;;;;;;4137030;28;20113;-63
2022/06/22 05:40:40;;;;;;;3.88;2.33;;;18.10;99.90;;;;;;4142997;28;20079;-63
2022/06/22 05:42:41;;;;;;;4.28;2.78;;;18.20;99.90;;;;;;4143885;28;20041;-64
2022/06/22 05:44:45;;;;;;;5.00;2.75;;;18.20;99.90;;;;;;4148403;28;20040;-63
2022/06/22 05:46:52;;;;;;;4.07;2.72;;;18.30;99.90;;;;;;4143413;28;20088;-64
2022/06/22 05:48:55;;;;;;;3.40;2.60;;;18.50;99.90;;;;;;4143625;28;20100;-64
2022/06/22 05:50:58;;;;;;;;;;;18.80;99.90;;;;;;4142569;28;20091;-64
2022/06/22 05:53:09;;;;;;;3.90;2.80;;;19.10;99.90;;;;;;4142220;28;19910;-64
2022/06/22 05:55:37;;;;;;;3.55;2.70;;;19.40;99.90;;;;;;4145924;28;20091;-64
2022/06/22 05:57:45;;;;;;;4.90;2.45;;;19.80;99.90;;;;;;4138944;28;20363;-64
2022/06/22 06:00:00;;;;;;;4.45;2.70;;;20.20;99.90;;;;;;4135635;28;21351;-64
2022/06/22 06:02:24;;;;;;;5.25;2.63;;;20.50;99.90;;;;;;4143016;28;20168;-64
2022/06/22 06:04:40;;;;;;;6.28;2.85;;;20.90;99.90;;;;;;4143167;28;20486;-64
2022/06/22 06:06:42;;;;;;;3.47;2.67;;;21.30;99.90;;;;;;4144442;28;20495;-64
2022/06/22 06:09:00;;;;;;;4.65;2.60;;;21.50;99.90;;;;;;4144401;28;20046;-64
2022/06/22 06:11:03;;;;;;;5.22;2.80;;;21.80;99.70;;;;;;4138633;28;20545;-64
2022/06/22 06:13:16;;;;;;;4.45;2.45;;;22.20;99.40;;;;;;4132376;28;20053;-64
2022/06/22 06:15:17;;;;;;;3.70;2.55;;;22.60;98.90;;;;;;4139112;28;20040;-64
2022/06/22 06:17:28;;;;;;;5.68;2.95;;;23.00;97.80;;;;;;4144061;28;20062;-64
2022/06/22 06:19:34;;;;;;;6.95;2.78;;;23.20;94.10;;;;;;4145887;28;20121;-65
2022/06/22 06:21:38;;;;;;;5.18;2.92;;;23.40;92.60;;;;;;4138764;28;20679;-65
2022/06/22 06:23:44;;;;;;;5.18;2.47;;;23.60;95.90;;;;;;4140818;28;20125;-64
2022/06/22 06:28:15;;;;;;;7.22;2.50;;;23.90;91.50;;;;;;4148261;28;20390;-65
2022/06/22 06:30:34;;;;;;;5.03;2.60;;;23.80;92.20;;;;;;4159061;28;20060;-65
2022/06/22 06:32:47;;;;;;;6.10;2.65;;;23.90;92.30;;;;;;4139571;28;20061;-65
2022/06/22 06:34:59;;;;;;;4.05;2.13;;;24.10;93.80;;;;;;4156833;28;20046;-65
2022/06/22 06:37:11;;;;;;;4.65;2.60;;;24.30;93.70;;;;;;4137827;28;20045;-65
2022/06/22 06:39:18;;;;;;;6.00;2.85;;;24.10;90.30;;;;;;4155254;28;20414;-65
2022/06/22 06:41:39;;;;;;;6.85;2.40;;;24.20;92.20;;;;;;4158960;28;20566;-65
2022/06/22 06:44:02;;;;;;;3.78;2.20;;;24.20;90.80;;;;;;4157573;28;20041;-65
2022/06/22 06:46:05;;;;;;;;;;;24.00;90.30;;;;;;4141475;28;20046;-65
2022/06/22 06:48:07;;;;;;;;;;;24.00;90.30;;;;;;4140666;28;20691;-65
2022/06/22 06:50:22;;;;;;;4.47;2.40;;;24.10;93.10;;;;;;4160898;28;19972;-65
2022/06/22 06:52:34;;;;;;;6.05;2.28;;;24.10;91.70;;;;;;4158891;28;20877;-65
2022/06/22 06:55:08;;;;;;;3.60;2.30;;;24.10;92.00;;;;;;4153140;28;20029;-65
2022/06/22 06:57:16;;;;;;;4.75;2.25;;;24.10;90.80;;;;;;4120242;28;20037;-65
2022/06/22 06:59:21;;;;;;;7.47;3.15;;;24.10;90.50;;;;;;4153954;28;20026;-65
2022/06/22 07:01:26;;;;;;;4.53;2.17;;;23.90;89.80;;;;;;4159625;28;20030;-65
2022/06/22 07:03:36;;;;;;;5.03;2.35;;;23.90;90.40;;;;;;4156454;28;20049;-65
2022/06/22 07:05:37;;;;;;;4.38;2.33;;;23.90;90.20;;;;;;4163644;28;20045;-65
2022/06/22 07:08:06;;;;;;;8.07;2.42;;;24.00;92.20;;;;;;4161985;28;20560;-65
2022/06/22 07:10:40;;;;;;;7.07;2.72;;;24.10;92.80;;;;;;4143974;28;20305;-65
2022/06/22 07:12:47;;;;;;;5.47;2.20;;;24.10;91.90;;;;;;4156622;28;20025;-65
2022/06/22 07:14:47;;;;;;;11.38;2.50;;;24.00;92.00;;;;;;4159756;28;20030;-65
2022/06/22 07:16:51;;;;;;;4.63;2.40;;;24.10;92.30;;;;;;4160836;28;20386;-65
2022/06/22 07:19:01;;;;;;;6.32;2.10;;;24.10;91.40;;;;;;4163520;28;20505;-65
2022/06/22 07:21:23;;;;;;;3.85;2.17;;;24.10;92.30;;;;;;4161237;28;20556;-65
2022/06/22 07:23:43;;;;;;;5.40;2.60;;;24.20;91.50;;;;;;4158346;28;20041;-65
2022/06/22 07:25:48;;;;;;;6.50;3.05;;;24.30;92.00;;;;;;4137709;28;20510;-65
2022/06/22 07:27:55;;;;;;;9.52;2.80;;;24.40;91.90;;;;;;4142018;28;20411;-65
2022/06/22 07:30:01;;;;;;;5.03;2.30;;;24.30;90.80;;;;;;4157963;28;20101;-65
2022/06/22 07:32:07;;;;;;;4.70;2.42;;;24.30;90.30;;;;;;4162633;28;20457;-65
2022/06/22 07:34:30;;;;;;;6.22;2.40;;;24.40;91.30;;;;;;4159155;28;20040;-65
2022/06/22 07:36:50;;;;;;;4.57;2.22;;;24.50;91.10;;;;;;4158323;28;20051;-65
2022/06/22 07:39:00;;;;;;;5.07;2.53;;;24.60;91.10;;;;;;4159613;28;20052;-65
2022/06/22 07:41:19;;;;;;;6.82;2.80;;;24.70;90.20;;;;;;4139393;28;20066;-65
2022/06/22 07:43:19;;;;;;;4.60;2.50;;;24.80;91.30;;;;;;4150095;23;20046;-71
2022/06/22 07:45:23;;;;;;;5.93;2.72;;;24.90;90.20;;;;;;4124502;28;20044;-72
2022/06/22 07:47:27;;;;;;;6.63;2.63;;;25.00;90.20;;;;;;4125147;28;20045;-71
2022/06/22 07:49:34;;;;;;;5.70;2.40;;;25.00;85.80;;;;;;4124763;28;20039;-71
2022/06/22 07:51:37;;;;;;;5.30;2.00;;;24.90;84.50;;;;;;4124258;28;20038;-71
2022/06/22 07:54:02;;;;;;;5.35;2.17;;;24.80;84.50;;;;;;4125400;28;20038;-72
2022/06/22 07:56:09;;;;;;;3.42;2.05;;;24.90;89.60;;;;;;4122649;28;20421;-71
2022/06/22 07:58:32;;;;;;;7.18;2.17;;;25.00;86.60;;;;;;4124309;28;20037;-72
2022/06/22 08:00:35;;;;;;;4.07;1.80;;;24.90;83.60;;;;;;4121880;28;20039;-71
2022/06/22 08:03:00;;;;;;;7.68;2.40;;;24.90;84.00;;;;;;4123859;28;20046;-72
2022/06/22 08:05:12;;;;;;;5.80;1.60;;;24.70;83.90;;;;;;4123034;28;20058;-71
2022/06/22 08:07:20;;;;;;;4.70;1.90;;;24.70;84.00;;;;;;4124590;28;20121;-71
2022/06/22 08:09:34;;;;;;;4.30;1.70;;;24.70;87.80;;;;;;4124784;28;20043;-71
2022/06/22 08:11:55;;;;;;;3.28;1.60;;;24.70;84.20;;;;;;4123067;28;20706;-71
2022/06/22 08:14:04;;;;;;;3.85;1.80;;;24.70;85.20;;;;;;4123519;28;20037;-71
2022/06/22 08:16:27;;;;;;;2.67;1.33;;;24.60;83.40;;;;;;4122805;28;20161;-71
2022/06/22 08:18:28;;;;;;;5.45;2.00;;;24.80;84.70;;;;;;4122091;28;20039;-72
2022/06/22 08:20:34;;;;;;;7.32;1.95;;;24.60;82.40;;;;;;4123348;28;20042;-71
2022/06/22 08:22:34;;;;;;;4.10;1.65;;;24.70;84.40;;;;;;4124155;28;20125;-71
2022/06/22 08:24:44;;;;;;;3.65;1.60;;;24.70;82.90;;;;;;4124060;28;20070;-72
2022/06/22 08:26:47;;;;;;;3.97;1.70;;;24.70;82.70;;;;;;4123779;28;20076;-72
2022/06/22 08:28:49;;;;;;;3.65;1.67;;;24.80;81.60;;;;;;4122832;28;20045;-72
2022/06/22 08:30:53;;;;;;;3.67;1.52;;;24.90;83.00;;;;;;4123541;28;20034;-71
2022/06/22 08:33:05;;;;;;;6.63;2.20;;;25.00;81.20;;;;;;4122676;28;20481;-71
2022/06/22 08:35:23;;;;;;;5.22;1.80;;;24.90;81.60;;;;;;4122779;28;20678;-71
2022/06/22 08:37:33;;;;;;;6.13;1.77;;;25.10;87.30;;;;;;4123534;28;20046;-71
2022/06/22 08:40:00;;;;;;;2.15;1.13;;;25.00;80.50;;;;;;4122424;28;20046;-71
2022/06/22 08:42:13;;;;;;;2.88;1.35;;;25.10;81.70;;;;;;4119546;28;20038;-71
2022/06/22 08:44:27;;;;;;;;;;;25.20;80.10;;;;;;4124205;28;20513;-71
2022/06/22 08:46:30;;;;;;;2.53;1.27;;;25.40;84.70;;;;;;4121269;28;19924;-72
2022/06/22 08:48:59;;;;;;;6.15;1.63;;;25.50;83.10;;;;;;4123465;28;20129;-71
2022/06/22 08:51:11;;;;;;;3.80;1.17;;;25.60;81.80;;;;;;4118381;28;20038;-71
2022/06/22 08:53:29;;;;;;;3.38;1.30;;;25.60;75.40;;;;;;4119921;28;20053;-71
2022/06/22 08:55:55;;;;;;;4.28;1.60;;;25.50;75.60;;;;;;4121488;28;20041;-71
2022/06/22 08:58:25;;;;;;;4.68;1.40;;;25.40;77.10;;;;;;4122917;28;20038;-72
2022/06/22 09:00:50;;;;;;;4.20;1.60;;;25.50;79.70;;;;;;4118785;28;20166;-72
2022/06/22 09:03:11;;;;;;;3.83;1.40;;;25.50;76.90;;;;;;4123564;28;20046;-72
2022/06/22 09:05:36;;;;;;;4.57;1.50;;;25.40;75.20;;;;;;4122578;28;20046;-73
2022/06/22 09:07:57;;;;;;;3.85;1.30;;;25.30;75.30;;;;;;4122594;28;20121;-72
2022/06/22 09:10:06;;;;;;;3.38;1.30;;;25.50;76.20;;;;;;4124180;28;20037;-71
2022/06/22 09:12:38;;;;;;;3.05;1.27;;;25.60;78.50;;;;;;4123449;28;20612;-71
2022/06/22 09:14:58;;;;;;;3.15;1.38;;;25.70;73.20;;;;;;4122825;28;20025;-72
2022/06/22 09:17:13;;;;;;;3.00;1.33;;;25.70;73.40;;;;;;4122041;28;20034;-73
2022/06/22 09:19:16;;;;;;;3.38;1.10;;;25.80;73.60;;;;;;4124696;28;20156;-72
2022/06/22 09:21:52;;;;;;;3.80;1.27;;;25.60;72.70;;;;;;4123218;28;20026;-71
2022/06/22 09:24:23;;;;;;;3.90;1.30;;;25.60;73.30;;;;;;4123482;28;20046;-71
2022/06/22 09:26:53;;;;;;;2.08;1.08;;;25.60;74.60;;;;;;4120279;28;20026;-71
2022/06/22 09:29:00;;;;;;;3.60;1.60;;;25.80;75.40;;;;;;4122763;28;20030;-72
2022/06/22 09:31:14;;;;;;;5.13;0.95;;;25.90;78.60;;;;;;4103524;28;20035;-73
2022/06/22 09:33:39;;;;;;;2.50;1.20;;;26.20;75.40;;;;;;4123741;28;20399;-72
2022/06/22 09:35:59;;;;;;;4.22;1.20;;;26.30;75.50;;;;;;4124054;28;20035;-71
2022/06/22 09:38:21;;;;;;;3.67;1.42;;;26.50;73.70;;;;;;4124152;28;20045;-72
2022/06/22 09:40:33;;;;;;;4.00;1.73;;;26.60;70.40;;;;;;4123106;28;20038;-72
2022/06/22 09:43:04;;;;;;;3.15;1.30;;;26.60;70.30;;;;;;4123018;28;20054;-72
2022/06/22 09:45:20;;;;;;;3.08;1.08;;;26.70;73.20;;;;;;4113427;28;20077;-73
2022/06/22 09:47:34;;;;;;;3.70;1.33;;;26.80;69.50;;;;;;4121807;28;20031;-71
2022/06/22 09:49:41;;;;;;;4.00;1.60;;;26.80;68.10;;;;;;4122929;28;20097;-72
2022/06/22 09:52:18;;;;;;;3.30;1.52;;;26.70;70.20;;;;;;4123826;28;20042;-72
2022/06/22 09:57:24;;;;;;;5.07;1.67;;;26.80;69.10;;;;;;4122933;28;20395;-72
2022/06/22 10:00:00;;;;;;;4.45;1.65;;;26.90;72.50;;;;;;4121426;28;20049;-72
2022/06/22 10:02:32;;;;;;;3.03;1.33;;;26.70;68.10;;;;;;4055702;29;20457;-72
2022/06/22 10:04:38;;;;;;;6.45;1.77;;;26.80;70.90;;;;;;4109231;28;20034;-72
2022/06/22 10:06:47;;;;;;;2.92;1.48;;;26.60;68.10;;;;;;4122606;28;20045;-72
2022/06/22 10:08:48;;;;;;;3.25;1.30;;;26.50;66.20;;;;;;4120645;28;20069;-72
2022/06/22 10:11:08;;;;;;;2.88;1.40;;;26.70;67.50;;;;;;4121768;28;20035;-72
2022/06/22 10:13:33;;;;;;;3.45;1.30;;;26.70;68.80;;;;;;4120474;28;20046;-72
2022/06/22 10:15:58;;;;;;;6.38;2.03;;;26.80;70.90;;;;;;4121057;28;20494;-72
2022/06/22 10:18:27;;;;;;;2.38;1.40;;;26.90;69.20;;;;;;4121906;28;20378;-72
2022/06/22 10:20:34;;;;;;;7.10;2.10;;;27.00;68.30;;;;;;4116462;28;20046;-72
2022/06/22 10:22:51;;;;;;;7.25;1.77;;;26.90;67.50;;;;;;4121663;28;20121;-72
2022/06/22 10:25:09;;;;;;;2.10;1.20;;;26.90;67.80;;;;;;4122979;28;20490;-72
2022/06/22 10:27:43;;;;;;;3.10;1.60;;;27.00;73.60;;;;;;4106068;28;20494;-72
2022/06/22 10:29:57;;;;;;;4.82;1.50;;;27.10;71.80;;;;;;4120543;28;20098;-72
2022/06/22 10:32:00;;;;;;;3.97;1.58;;;27.10;69.20;;;;;;4121640;28;20035;-73
2022/06/22 10:34:35;;;;;;;4.63;1.60;;;27.10;71.00;;;;;;4121776;28;21086;-73
2022/06/22 10:36:44;;;;;;;3.40;1.38;;;26.90;67.20;;;;;;4118019;28;20067;-73
2022/06/22 10:39:04;;;;;;;3.25;1.67;;;26.80;67.30;;;;;;4121654;28;20131;-73
2022/06/22 10:46:28;;;;;;;4.70;2.05;;;27.20;72.30;;;;;;4123095;28;20453;-73
2022/06/22 10:48:42;;;;;;;3.03;1.40;;;27.00;65.90;;;;;;4122163;28;20038;-73
2022/06/22 10:51:13;;;;;;;5.03;1.90;;;27.00;65.40;;;;;;4123515;28;20152;-73
2022/06/22 10:53:16;;;;;;;4.70;1.95;;;27.10;67.00;;;;;;4127877;28;20041;-72
2022/06/22 10:55:34;;;;;;;2.28;1.42;;;27.00;65.30;;;;;;4126053;28;20682;-74
2022/06/22 10:58:00;;;;;;;4.35;2.05;;;27.00;66.00;;;;;;4127636;28;20046;-73
2022/06/22 11:00:40;;;;;;;3.22;1.40;;;26.90;63.50;;;;;;4123576;28;20038;-73
2022/06/22 11:03:09;;;;;;;4.95;1.35;;;27.00;67.40;;;;;;4090900;28;20089;-73
2022/06/22 11:05:28;;;;;;;4.88;1.58;;;27.20;64.60;;;;;;4129471;28;20493;-74
2022/06/22 11:07:52;;;;;;;5.68;1.65;;;27.20;64.50;;;;;;4127929;28;20079;-73
2022/06/22 11:10:09;;;;;;;3.00;1.20;;;27.40;68.10;;;;;;4127766;28;20042;-73
2022/06/22 11:12:40;;;;;;;2.05;0.95;;;27.50;67.50;;;;;;4127241;28;20031;-73
2022/06/22 11:14:54;;;;;;;4.13;1.23;;;27.60;64.30;;;;;;4126531;28;20030;-73
2022/06/22 11:17:11;;;;;;;3.75;1.10;;;27.50;63.30;;;;;;4127994;28;20081;-72
2022/06/22 11:19:28;;;;;;;1.40;0.77;;;27.60;68.70;;;;;;4127546;28;20030;-73
2022/06/22 11:21:48;;;;;;;3.28;1.30;;;27.70;64.40;;;;;;4125734;28;20035;-72
2022/06/22 11:24:11;;;;;;;3.72;1.10;;;27.60;62.90;;;;;;4086256;28;20023;-73
2022/06/22 11:32:02;;;;;;;1.63;1.05;;;27.60;62.00;;;;;;4127624;28;20039;-73
2022/06/22 11:34:24;;;;;;;1.30;0.90;;;27.70;62.00;;;;;;4122431;28;20035;-73
2022/06/22 11:37:00;;;;;;;3.97;1.40;;;27.80;64.50;;;;;;4126423;28;20080;-73
2022/06/22 11:39:34;;;;;;;3.33;1.25;;;27.90;66.50;;;;;;4126037;28;20425;-73
2022/06/22 11:42:15;;;;;;;3.10;1.20;;;27.90;61.10;;;;;;4123016;28;20593;-73
2022/06/22 11:44:40;;;;;;;2.60;1.20;;;27.90;62.70;;;;;;4125047;28;20051;-73
2022/06/22 11:46:47;;;;;;;1.23;0.80;;;28.10;63.20;;;;;;4123223;28;20154;-72
2022/06/22 11:49:33;;;;;;;2.50;1.20;;;28.10;62.50;;;;;;4126548;28;20069;-73
2022/06/22 11:51:56;;;;;;;3.90;1.38;;;28.20;64.30;;;;;;4126689;28;20044;-73
2022/06/22 11:54:24;;;;;;;2.03;1.10;;;28.10;59.90;;;;;;4123965;28;20390;-73
2022/06/22 11:56:45;;;;;;;2.17;1.00;;;28.10;62.10;;;;;;4127397;28;20057;-73
2022/06/22 11:59:05;;;;;;;3.80;1.35;;;28.10;61.40;;;;;;4125253;28;20493;-73
2022/06/22 12:01:29;;;;;;;1.70;1.02;;;28.20;60.00;;;;;;4127296;28;20026;-73